Time;durP1;ratioP1;P1;durP2;ratioP2;P2;SDS_P1;SDS_P2;PMS_P1;PMS_P2;Temp;Humidity;BMP_temperature;BMP_pressure;BME280_temperature;BME280_humidity;BME280_pressure;Samples;Min_cycle;Max_cycle;Signal;HPM_P1;HPM_P2
2023/08/07 00:02:17;;;;;;;2.45;0.70;;;18.20;68.90;19.60;101104.00;;;;5048043;28;20207;-78
2023/08/07 00:04:44;;;;;;;4.00;1.10;;;18.10;68.80;19.60;101099.00;;;;5025734;28;20200;-78
2023/08/07 00:07:12;;;;;;;2.35;1.08;;;18.10;68.90;19.50;101099.00;;;;5042026;28;20192;-78
2023/08/07 00:09:39;;;;;;;2.10;0.90;;;18.10;69.00;19.50;101093.00;;;;5048427;28;20223;-79
2023/08/07 00:12:07;;;;;;;4.28;1.08;;;18.10;69.00;19.50;101107.00;;;;5049231;28;20246;-79
2023/08/07 00:14:36;;;;;;;3.25;0.70;;;18.10;69.10;19.50;101103.00;;;;5041266;28;20706;-79
2023/08/07 00:17:05;;;;;;;2.83;0.80;;;18.10;69.20;19.50;101102.00;;;;5041866;28;20659;-79
2023/08/07 00:19:32;;;;;;;4.15;1.77;;;18.10;69.30;19.50;101101.00;;;;5043979;28;20678;-79
2023/08/07 00:21:59;;;;;;;4.18;1.17;;;18.10;69.30;19.50;101111.00;;;;5033178;28;20651;-78
2023/08/07 00:24:28;;;;;;;4.82;1.00;;;18.00;69.30;19.50;101120.00;;;;5038430;28;20214;-79
2023/08/07 00:26:55;;;;;;;2.50;0.98;;;18.00;69.40;19.40;101104.00;;;;5047613;28;20215;-79
2023/08/07 00:29:22;;;;;;;3.03;0.98;;;18.00;69.40;19.50;101104.00;;;;5046503;28;20216;-78
2023/08/07 00:31:49;;;;;;;5.47;1.40;;;18.00;69.30;19.50;101111.00;;;;5036603;28;20951;-78
2023/08/07 00:34:17;;;;;;;4.13;1.35;;;18.00;69.40;19.40;101107.00;;;;5045569;28;20214;-79
2023/08/07 00:36:45;;;;;;;5.80;1.10;;;18.00;69.40;19.40;101107.00;;;;5051790;28;20278;-79
2023/08/07 00:39:14;;;;;;;4.38;1.50;;;18.00;69.50;19.40;101120.00;;;;5047452;28;20203;-78
2023/08/07 00:41:43;;;;;;;5.85;1.08;;;18.00;69.50;19.40;101119.00;;;;5046170;28;20356;-78
2023/08/07 00:44:09;;;;;;;7.18;1.65;;;18.00;69.60;19.40;101112.00;;;;5041121;28;20204;-78
2023/08/07 00:46:38;;;;;;;4.22;1.35;;;18.00;69.60;19.40;101105.00;;;;5047183;28;20211;-78
2023/08/07 00:49:06;;;;;;;6.25;1.45;;;18.00;69.50;19.40;101107.00;;;;5046836;28;20203;-79
2023/08/07 00:51:35;;;;;;;2.90;1.10;;;18.00;69.60;19.50;101106.00;;;;5031442;28;20200;-79
2023/08/07 00:54:07;;;;;;;6.25;1.60;;;18.00;69.70;19.40;101108.00;;;;5041821;28;20203;-80
2023/08/07 00:56:34;;;;;;;2.83;0.90;;;18.00;69.70;19.50;101111.00;;;;5047626;28;20290;-79
2023/08/07 00:59:03;;;;;;;3.90;1.40;;;18.00;69.70;19.50;101103.00;;;;5034883;28;20200;-79
2023/08/07 01:01:31;;;;;;;6.80;1.77;;;18.00;69.70;19.50;101108.00;;;;5036193;28;20204;-79
2023/08/07 01:03:58;;;;;;;5.78;1.60;;;18.00;69.70;19.50;101105.00;;;;5039519;28;20257;-78
2023/08/07 01:06:25;;;;;;;5.38;1.33;;;18.00;69.70;19.50;101100.00;;;;5044358;28;20570;-78
2023/08/07 01:08:52;;;;;;;5.68;1.40;;;18.00;69.60;19.50;101108.00;;;;5046814;28;20574;-79
2023/08/07 01:11:34;;;;;;;7.50;2.00;;;18.00;69.60;19.50;101100.00;;;;5047849;28;20235;-79
2023/08/07 01:14:11;;;;;;;6.65;1.60;;;18.00;69.60;19.50;101103.00;;;;5047156;28;20204;-79
2023/08/07 01:16:48;;;;;;;4.43;1.77;;;18.10;69.70;19.50;101096.00;;;;5048377;28;20203;-78
2023/08/07 01:19:26;;;;;;;3.97;1.15;;;18.10;69.50;19.50;101096.00;;;;5048402;28;20210;-78
2023/08/07 01:22:07;;;;;;;5.72;1.67;;;18.10;69.50;19.50;101112.00;;;;5046978;28;20200;-79
2023/08/07 01:24:35;;;;;;;6.15;1.02;;;18.10;69.40;19.60;101099.00;;;;5036231;28;20262;-79
2023/08/07 01:27:24;;;;;;;2.13;0.77;;;18.10;69.30;19.50;101111.00;;;;5046114;28;20675;-79
2023/08/07 01:29:58;;;;;;;3.80;0.93;;;18.10;69.30;19.50;101113.00;;;;5044203;28;20224;-78
2023/08/07 01:32:33;;;;;;;4.35;1.15;;;18.10;69.20;19.50;101110.00;;;;5041464;28;20214;-79
2023/08/07 01:35:05;;;;;;;3.25;1.05;;;18.10;69.10;19.50;101110.00;;;;5038051;28;20191;-78
2023/08/07 01:37:39;;;;;;;6.28;0.73;;;18.10;69.10;19.50;101106.00;;;;5038414;28;20188;-78
2023/08/07 01:40:09;;;;;;;3.45;1.13;;;18.10;69.10;19.60;101110.00;;;;5038830;28;20231;-78
2023/08/07 01:42:37;;;;;;;5.07;1.00;;;18.10;69.00;19.60;101117.00;;;;5041902;28;20196;-78
2023/08/07 01:45:06;;;;;;;3.95;0.90;;;18.10;69.00;19.60;101116.00;;;;5044362;28;20250;-78
2023/08/07 01:47:35;;;;;;;3.35;1.10;;;18.10;69.00;19.60;101116.00;;;;5043464;28;20218;-78
2023/08/07 01:50:02;;;;;;;6.32;1.00;;;18.10;69.00;19.60;101113.00;;;;5045134;28;20227;-78
2023/08/07 01:52:29;;;;;;;3.10;1.15;;;18.10;68.90;19.60;101114.00;;;;5048042;28;20722;-78
2023/08/07 01:54:57;;;;;;;3.95;1.33;;;18.10;68.90;19.50;101116.00;;;;5045448;28;20322;-79
2023/08/07 01:57:25;;;;;;;5.13;1.13;;;18.10;68.80;19.60;101123.00;;;;5044396;28;20211;-78
2023/08/07 01:59:53;;;;;;;3.80;1.05;;;18.10;68.80;19.50;101122.00;;;;5045515;28;20678;-78
2023/08/07 02:02:19;;;;;;;2.22;0.70;;;18.10;68.80;19.50;101133.00;;;;5035055;28;20196;-78
2023/08/07 02:04:46;;;;;;;4.03;0.77;;;18.10;68.70;19.50;101118.00;;;;5028091;28;20196;-78
2023/08/07 02:07:13;;;;;;;1.80;0.93;;;18.00;68.60;19.50;101128.00;;;;5043435;28;20677;-78
2023/08/07 02:09:40;;;;;;;1.73;1.10;;;18.10;68.70;19.50;101128.00;;;;5051741;28;20678;-78
2023/08/07 02:12:09;;;;;;;4.25;0.82;;;18.00;68.70;19.50;101121.00;;;;5048247;28;20675;-78
2023/08/07 02:14:36;;;;;;;5.20;0.77;;;18.00;68.60;19.50;101128.00;;;;5050265;28;20694;-78
2023/08/07 02:17:03;;;;;;;4.57;1.00;;;18.00;68.60;19.50;101122.00;;;;5048281;28;20193;-78
2023/08/07 02:19:30;;;;;;;6.03;1.10;;;18.00;68.60;19.50;101123.00;;;;5051278;28;20680;-78
2023/08/07 02:21:57;;;;;;;2.15;0.95;;;18.10;68.70;19.50;101123.00;;;;5046583;28;20585;-78
2023/08/07 02:24:24;;;;;;;3.65;1.00;;;18.00;68.60;19.50;101130.00;;;;5051266;28;20187;-78
2023/08/07 02:26:52;;;;;;;4.72;1.30;;;18.00;68.60;19.50;101124.00;;;;5050452;28;20282;-78
2023/08/07 02:29:21;;;;;;;3.17;1.08;;;18.00;68.60;19.50;101130.00;;;;5041115;28;20214;-78
2023/08/07 02:31:48;;;;;;;4.80;1.08;;;18.10;68.70;19.50;101130.00;;;;5041817;28;20219;-78
2023/08/07 02:34:15;;;;;;;3.65;1.15;;;18.10;68.70;19.60;101129.00;;;;5050033;28;20204;-78
2023/08/07 02:36:41;;;;;;;3.33;0.98;;;18.00;68.70;19.60;101126.00;;;;5033083;28;20200;-78
2023/08/07 02:39:08;;;;;;;4.18;1.17;;;18.10;68.80;19.60;101129.00;;;;5041656;28;20192;-78
2023/08/07 02:41:35;;;;;;;1.98;1.05;;;18.00;68.70;19.60;101128.00;;;;5047334;28;20211;-78
2023/08/07 02:44:02;;;;;;;1.23;0.73;;;18.10;68.90;19.60;101122.00;;;;5053851;28;20194;-78
2023/08/07 02:46:31;;;;;;;6.32;1.73;;;18.10;68.90;19.60;101129.00;;;;5048216;28;20204;-78
2023/08/07 02:48:57;;;;;;;4.40;1.33;;;18.10;68.80;19.60;101121.00;;;;5044705;28;20204;-79
2023/08/07 02:51:24;;;;;;;3.65;1.40;;;18.10;68.80;19.60;101123.00;;;;5048930;28;20231;-78
2023/08/07 02:53:53;;;;;;;4.43;0.82;;;18.10;68.80;19.60;101122.00;;;;5047756;28;20804;-78
2023/08/07 02:56:23;;;;;;;4.22;0.95;;;18.10;68.80;19.70;101117.00;;;;5042576;28;20223;-79
2023/08/07 02:58:50;;;;;;;4.78;1.30;;;18.10;68.80;19.70;101125.00;;;;5050460;28;20204;-78
2023/08/07 03:01:17;;;;;;;7.15;1.75;;;18.10;69.50;19.70;101127.00;;;;5047617;28;20586;-79
2023/08/07 03:03:45;;;;;;;4.80;1.08;;;18.10;68.80;19.70;101120.00;;;;5044342;28;20682;-78
2023/08/07 03:06:12;;;;;;;4.72;1.17;;;18.10;68.70;19.70;101132.00;;;;5047764;28;20195;-78
2023/08/07 03:08:39;;;;;;;6.43;1.60;;;18.20;68.80;19.70;101141.00;;;;5049132;28;20551;-78
2023/08/07 03:11:06;;;;;;;6.47;1.63;;;18.20;68.80;19.70;101146.00;;;;5048181;28;20219;-78
2023/08/07 03:13:33;;;;;;;4.18;1.15;;;18.20;68.70;19.70;101145.00;;;;5046869;28;20183;-78
2023/08/07 03:16:01;;;;;;;6.25;1.30;;;18.20;68.60;19.60;101139.00;;;;5046676;28;20211;-78
2023/08/07 03:18:28;;;;;;;6.60;1.73;;;18.20;68.60;19.60;101142.00;;;;5046475;28;20200;-78
2023/08/07 03:20:57;;;;;;;3.92;1.35;;;18.20;68.60;19.50;101140.00;;;;5045684;28;20210;-79
2023/08/07 03:23:25;;;;;;;6.35;1.70;;;18.10;68.60;19.50;101133.00;;;;5045661;28;20201;-79
2023/08/07 03:26:03;;;;;;;4.70;1.55;;;18.10;68.70;19.40;101137.00;;;;5043069;28;20203;-79
2023/08/07 03:28:29;;;;;;;3.05;1.75;;;18.10;68.80;19.50;101136.00;;;;5040591;28;20574;-79
2023/08/07 03:30:57;;;;;;;5.25;1.20;;;18.10;68.80;19.50;101137.00;;;;5046862;28;20227;-79
2023/08/07 03:33:23;;;;;;;4.13;1.48;;;18.10;69.00;19.50;101137.00;;;;5039773;28;20210;-79
2023/08/07 03:35:51;;;;;;;3.53;1.10;;;18.10;69.00;19.50;101139.00;;;;5043854;28;20193;-79
2023/08/07 03:38:19;;;;;;;5.80;1.38;;;18.00;69.10;19.40;101139.00;;;;5047603;28;20690;-78
2023/08/07 03:40:47;;;;;;;3.65;1.08;;;18.00;69.10;19.40;101142.00;;;;5047986;28;20227;-79
2023/08/07 03:43:14;;;;;;;5.05;0.93;;;18.00;69.10;19.40;101147.00;;;;5048217;28;20563;-79
2023/08/07 03:45:41;;;;;;;1.58;0.77;;;18.00;69.10;19.40;101135.00;;;;5047748;28;20196;-80
2023/08/07 03:48:08;;;;;;;3.83;0.90;;;18.00;69.20;19.40;101129.00;;;;5040876;28;20212;-78
2023/08/07 03:50:37;;;;;;;3.65;1.33;;;18.00;69.30;19.40;101118.00;;;;5043040;28;20224;-79
2023/08/07 03:53:06;;;;;;;5.45;1.23;;;18.00;69.40;19.40;101123.00;;;;5035869;28;20191;-78
2023/08/07 03:55:36;;;;;;;2.53;1.00;;;18.00;69.40;19.40;101120.00;;;;5031206;28;20709;-78
2023/08/07 03:58:03;;;;;;;2.05;0.80;;;18.00;69.40;19.40;101129.00;;;;5046597;28;20204;-78
2023/08/07 04:00:30;;;;;;;2.47;1.02;;;18.00;69.40;19.40;101125.00;;;;5032883;28;20204;-78
2023/08/07 04:02:57;;;;;;;3.85;1.13;;;18.00;69.50;19.40;101126.00;;;;5037887;28;20204;-78
2023/08/07 04:05:24;;;;;;;2.33;1.02;;;18.00;69.70;19.40;101126.00;;;;5046740;28;20204;-80
2023/08/07 04:07:51;;;;;;;1.92;0.70;;;18.00;69.60;19.40;101131.00;;;;5049702;28;20200;-79
2023/08/07 04:10:18;;;;;;;2.40;0.82;;;17.90;69.60;19.40;101136.00;;;;5046763;28;20200;-78
2023/08/07 04:12:46;;;;;;;6.15;1.50;;;17.90;69.70;19.40;101130.00;;;;5043905;28;20196;-79
2023/08/07 04:15:13;;;;;;;3.97;0.90;;;17.90;69.80;19.40;101132.00;;;;5036396;28;20204;-78
2023/08/07 04:17:41;;;;;;;2.35;0.90;;;18.00;69.90;19.40;101133.00;;;;5035030;28;20658;-79
2023/08/07 04:20:10;;;;;;;2.28;0.82;;;17.90;69.80;19.40;101132.00;;;;5043794;28;20679;-79
2023/08/07 04:22:37;;;;;;;8.07;1.60;;;18.00;70.00;19.40;101135.00;;;;5048061;28;20224;-78
2023/08/07 04:25:04;;;;;;;1.88;0.90;;;18.00;70.10;19.40;101136.00;;;;5046779;28;20200;-78
2023/08/07 04:27:31;;;;;;;3.20;1.58;;;18.00;70.10;19.40;101138.00;;;;5048244;28;20327;-79
2023/08/07 04:29:59;;;;;;;3.22;0.98;;;18.00;70.10;19.40;101139.00;;;;5046423;28;20578;-79
2023/08/07 04:32:26;;;;;;;6.47;1.70;;;18.00;70.10;19.50;101139.00;;;;5047002;28;20231;-78
2023/08/07 04:34:53;;;;;;;4.93;1.45;;;18.00;70.00;19.50;101139.00;;;;5043219;28;20188;-79
2023/08/07 04:37:21;;;;;;;3.42;1.15;;;18.00;70.00;19.50;101150.00;;;;5043542;28;20200;-78
2023/08/07 04:39:49;;;;;;;2.35;0.93;;;18.00;70.10;19.50;101144.00;;;;5043543;28;21028;-79
2023/08/07 04:42:16;;;;;;;6.10;1.40;;;18.00;70.10;19.50;101148.00;;;;5039945;28;20195;-79
2023/08/07 04:44:43;;;;;;;6.30;1.08;;;18.00;70.00;19.50;101146.00;;;;5037344;28;20200;-79
2023/08/07 04:47:11;;;;;;;3.90;1.45;;;18.00;70.00;19.50;101156.00;;;;5039889;28;20218;-78
2023/08/07 04:49:38;;;;;;;3.58;0.98;;;18.00;70.00;19.50;101164.00;;;;5043964;28;20192;-79
2023/08/07 04:52:06;;;;;;;2.95;1.42;;;18.00;70.00;19.50;101158.00;;;;5044042;28;20217;-79
2023/08/07 04:54:33;;;;;;;3.88;1.00;;;18.10;70.00;19.50;101162.00;;;;5029785;28;20204;-79
2023/08/07 04:57:00;;;;;;;4.97;1.60;;;18.10;70.00;19.50;101166.00;;;;5032824;28;20227;-78
2023/08/07 04:59:29;;;;;;;3.97;1.27;;;18.10;69.90;19.60;101162.00;;;;5044391;28;20662;-78
2023/08/07 05:01:56;;;;;;;5.18;0.90;;;18.10;69.90;19.60;101157.00;;;;5043326;28;20198;-78
2023/08/07 05:04:24;;;;;;;8.73;1.55;;;18.10;69.90;19.60;101164.00;;;;5047022;28;20199;-79
2023/08/07 05:06:52;;;;;;;3.30;1.17;;;18.10;69.90;19.60;101157.00;;;;5047668;28;20249;-78
2023/08/07 05:09:19;;;;;;;5.38;1.52;;;18.10;69.90;19.60;101155.00;;;;5039208;28;20570;-79
2023/08/07 05:11:46;;;;;;;7.20;1.45;;;18.10;69.90;19.60;101164.00;;;;5044295;28;20851;-79
2023/08/07 05:14:13;;;;;;;6.03;1.38;;;18.10;70.00;19.60;101168.00;;;;5039452;28;20200;-79
2023/08/07 05:16:40;;;;;;;3.65;1.20;;;18.10;69.90;19.60;101165.00;;;;5047070;28;20199;-78
2023/08/07 05:19:07;;;;;;;4.28;1.63;;;18.10;69.90;19.60;101170.00;;;;5038054;28;20200;-78
2023/08/07 05:21:35;;;;;;;5.63;1.08;;;18.20;69.90;19.60;101171.00;;;;5046520;28;20726;-78
2023/08/07 05:24:02;;;;;;;4.30;1.40;;;18.20;69.80;19.60;101176.00;;;;5047069;28;20207;-78
2023/08/07 05:26:29;;;;;;;4.20;2.00;;;18.20;69.80;19.60;101182.00;;;;5045821;28;20202;-78
2023/08/07 05:28:57;;;;;;;3.88;1.50;;;18.20;69.70;19.60;101177.00;;;;5044143;28;20192;-77
2023/08/07 05:31:25;;;;;;;4.05;1.30;;;18.20;69.70;19.60;101183.00;;;;5046020;28;20227;-78
2023/08/07 05:33:52;;;;;;;3.78;0.90;;;18.20;69.70;19.70;101184.00;;;;5044910;28;20203;-77
2023/08/07 05:36:19;;;;;;;4.00;1.60;;;18.20;69.70;19.70;101194.00;;;;5043200;28;20196;-77
2023/08/07 05:38:47;;;;;;;6.20;1.50;;;18.20;69.80;19.70;101188.00;;;;5044028;28;20230;-78
2023/08/07 05:41:14;;;;;;;2.92;1.52;;;18.30;69.80;19.70;101201.00;;;;5047914;28;20230;-77
2023/08/07 05:43:41;;;;;;;5.80;1.35;;;18.30;69.80;19.70;101201.00;;;;5052116;28;20207;-77
2023/08/07 05:46:08;;;;;;;4.80;1.50;;;18.30;69.80;19.80;101213.00;;;;5054163;28;20200;-77
2023/08/07 05:48:35;;;;;;;3.15;1.00;;;18.30;69.70;19.80;101231.00;;;;5054103;28;20187;-78
2023/08/07 05:51:02;;;;;;;6.75;1.65;;;18.30;69.80;19.80;101226.00;;;;5053879;28;20227;-76
2023/08/07 05:53:29;;;;;;;4.20;1.35;;;18.30;69.80;19.80;101228.00;;;;5038513;28;20671;-78
2023/08/07 05:55:57;;;;;;;2.47;1.00;;;18.30;69.50;19.70;101222.00;;;;5039513;28;20228;-77
2023/08/07 05:58:24;;;;;;;1.85;0.85;;;18.30;69.30;19.60;101237.00;;;;5051600;28;20210;-77
2023/08/07 06:00:51;;;;;;;3.00;1.20;;;18.30;69.20;19.60;101231.00;;;;5046298;28;20208;-77
2023/08/07 06:03:18;;;;;;;2.38;1.02;;;18.30;69.10;19.50;101226.00;;;;5045979;28;20208;-78
2023/08/07 06:05:46;;;;;;;4.10;1.08;;;18.20;69.10;19.50;101231.00;;;;5040333;28;20207;-78
2023/08/07 06:08:13;;;;;;;2.17;0.70;;;18.20;69.10;19.40;101230.00;;;;5048814;28;21253;-78
2023/08/07 06:10:40;;;;;;;3.13;1.30;;;18.10;69.20;19.40;101229.00;;;;5051001;28;20203;-77
2023/08/07 06:13:08;;;;;;;5.32;1.50;;;18.10;69.40;19.40;101231.00;;;;5047431;28;20659;-77
2023/08/07 06:15:35;;;;;;;2.13;1.00;;;18.00;69.40;19.40;101232.00;;;;5037727;28;20279;-77
2023/08/07 06:18:01;;;;;;;3.30;1.55;;;18.10;69.60;19.40;101237.00;;;;5051045;28;20191;-77
2023/08/07 06:20:28;;;;;;;5.05;1.42;;;18.10;69.80;19.50;101243.00;;;;5053548;28;20254;-78
2023/08/07 06:22:55;;;;;;;10.18;2.05;;;18.10;69.90;19.50;101246.00;;;;5051153;28;20206;-78
2023/08/07 06:25:22;;;;;;;5.85;1.83;;;18.00;70.00;19.50;101240.00;;;;5053451;28;20192;-78
2023/08/07 06:27:51;;;;;;;3.15;1.17;;;18.10;70.10;19.50;101247.00;;;;5047680;28;20199;-77
2023/08/07 06:30:20;;;;;;;3.70;1.60;;;18.10;70.20;19.60;101255.00;;;;5043439;28;20843;-79
2023/08/07 06:32:46;;;;;;;2.83;1.30;;;18.10;70.40;19.60;101248.00;;;;5041614;28;20587;-77
2023/08/07 06:35:13;;;;;;;6.32;2.03;;;18.10;70.50;19.70;101251.00;;;;5043540;28;20579;-78
2023/08/07 06:37:41;;;;;;;7.90;1.92;;;18.10;70.60;19.80;101260.00;;;;5034486;28;20192;-79
2023/08/07 06:40:09;;;;;;;3.58;1.33;;;18.20;70.80;19.80;101256.00;;;;5047471;28;20250;-75
2023/08/07 06:42:37;;;;;;;3.88;1.17;;;18.30;71.00;19.90;101251.00;;;;5042909;28;20586;-77
2023/08/07 06:45:05;;;;;;;3.95;1.52;;;18.30;70.90;19.90;101255.00;;;;5048296;28;20215;-79
2023/08/07 06:47:34;;;;;;;6.70;1.67;;;18.30;70.80;20.00;101258.00;;;;5049579;28;20204;-77
2023/08/07 06:50:01;;;;;;;3.85;1.20;;;18.40;70.70;20.00;101268.00;;;;5048633;28;20207;-78
2023/08/07 06:52:28;;;;;;;5.38;1.65;;;18.50;70.70;20.10;101264.00;;;;5049987;28;20586;-77
2023/08/07 06:54:55;;;;;;;3.40;1.60;;;18.50;70.60;20.10;101268.00;;;;5037670;28;21077;-77
2023/08/07 06:57:22;;;;;;;5.10;1.70;;;18.50;70.50;20.10;101270.00;;;;5039283;28;20266;-76
2023/08/07 06:59:49;;;;;;;5.22;1.73;;;18.50;70.40;20.20;101278.00;;;;5040858;28;20189;-76
2023/08/07 07:02:16;;;;;;;3.65;1.33;;;18.60;70.50;20.30;101275.00;;;;5040143;28;20208;-76
2023/08/07 07:04:44;;;;;;;4.93;1.95;;;18.70;70.50;20.30;101273.00;;;;5031734;28;20579;-75
2023/08/07 07:07:11;;;;;;;3.33;1.60;;;18.70;70.40;20.40;101277.00;;;;5037393;28;20205;-75
2023/08/07 07:09:38;;;;;;;2.30;1.40;;;18.80;70.30;20.40;101273.00;;;;5041418;28;20208;-76
2023/08/07 07:12:06;;;;;;;3.83;1.88;;;18.80;70.20;20.40;101283.00;;;;5048791;28;20215;-77
2023/08/07 07:14:34;;;;;;;5.20;1.88;;;18.80;70.20;20.50;101280.00;;;;5050197;28;20199;-76
2023/08/07 07:17:01;;;;;;;2.58;1.70;;;18.90;70.10;20.50;101282.00;;;;5047874;28;20223;-78
2023/08/07 07:19:28;;;;;;;5.53;1.63;;;18.90;70.70;20.50;101294.00;;;;5046706;28;20202;-76
2023/08/07 07:21:57;;;;;;;3.80;1.67;;;19.00;69.90;20.60;101301.00;;;;5041049;28;20195;-77
2023/08/07 07:24:24;;;;;;;3.92;1.67;;;19.00;69.80;20.60;101318.00;;;;5044902;28;20200;-75
2023/08/07 07:26:51;;;;;;;4.82;1.40;;;19.00;69.50;20.60;101320.00;;;;5040640;28;20207;-75
2023/08/07 07:29:18;;;;;;;4.25;1.33;;;19.00;69.10;20.50;101320.00;;;;5046383;28;20203;-75
2023/08/07 07:31:46;;;;;;;4.85;1.67;;;19.00;68.90;20.50;101313.00;;;;5040855;28;20220;-76
2023/08/07 07:34:14;;;;;;;3.20;1.17;;;19.00;68.70;20.50;101324.00;;;;5047458;28;20287;-75
2023/08/07 07:36:41;;;;;;;2.85;1.30;;;19.00;68.60;20.50;101318.00;;;;5042607;28;20231;-76
2023/08/07 07:39:10;;;;;;;3.22;1.15;;;19.00;68.60;20.50;101318.00;;;;5044466;28;20231;-76
2023/08/07 07:41:37;;;;;;;4.25;1.23;;;19.00;68.80;20.50;101321.00;;;;5030692;28;20224;-75
2023/08/07 07:44:04;;;;;;;4.05;1.77;;;19.00;69.00;20.60;101323.00;;;;5043568;28;20227;-76
2023/08/07 07:46:32;;;;;;;3.38;1.27;;;19.00;69.20;20.60;101332.00;;;;5032475;28;20317;-75
2023/08/07 07:48:59;;;;;;;2.67;1.38;;;19.10;69.50;20.70;101338.00;;;;5030596;28;20201;-76
2023/08/07 07:51:26;;;;;;;4.90;1.85;;;19.10;69.60;20.70;101339.00;;;;5046297;28;20206;-75
2023/08/07 07:53:54;;;;;;;3.58;1.50;;;19.20;69.80;20.80;101342.00;;;;5048065;28;20616;-76
2023/08/07 07:56:23;;;;;;;3.63;1.38;;;19.20;69.70;20.80;101340.00;;;;5036645;28;20626;-76
2023/08/07 07:58:49;;;;;;;3.58;1.70;;;19.30;69.60;20.90;101332.00;;;;5041647;28;20222;-75
2023/08/07 08:01:17;;;;;;;4.55;1.58;;;19.30;69.60;21.00;101333.00;;;;5047261;28;20192;-76
2023/08/07 08:03:45;;;;;;;5.40;1.80;;;19.40;69.70;21.10;101340.00;;;;5048897;28;20192;-75
2023/08/07 08:06:13;;;;;;;5.85;1.58;;;19.50;69.80;21.20;101345.00;;;;5046859;28;20241;-76
2023/08/07 08:08:42;;;;;;;7.68;1.45;;;19.50;69.80;21.20;101347.00;;;;5041360;28;20231;-76
2023/08/07 08:11:09;;;;;;;5.75;1.63;;;19.60;69.70;21.30;101349.00;;;;5046543;28;20208;-75
2023/08/07 08:13:40;;;;;;;5.13;1.90;;;19.70;69.50;21.40;101350.00;;;;5044542;28;20234;-76
2023/08/07 08:16:08;;;;;;;4.35;1.48;;;19.80;69.40;21.40;101351.00;;;;5044655;28;20298;-76
2023/08/07 08:18:36;;;;;;;4.15;1.50;;;19.80;69.10;21.50;101359.00;;;;5048092;28;20231;-76
2023/08/07 08:21:03;;;;;;;5.72;1.80;;;19.90;68.70;21.50;101364.00;;;;5048329;28;20219;-76
2023/08/07 08:23:30;;;;;;;4.22;1.63;;;20.00;68.60;21.60;101363.00;;;;5046558;28;20297;-76
2023/08/07 08:25:58;;;;;;;6.35;1.50;;;20.00;68.70;21.70;101369.00;;;;5043557;28;20316;-76
2023/08/07 08:28:25;;;;;;;7.82;2.05;;;20.10;68.50;21.70;101370.00;;;;5042660;28;20231;-77
2023/08/07 08:30:54;;;;;;;4.45;1.77;;;20.20;68.00;21.70;101385.00;;;;5046078;28;20253;-77
2023/08/07 08:33:22;;;;;;;6.20;1.67;;;20.20;67.30;21.70;101371.00;;;;5034473;28;20785;-76
2023/08/07 08:35:49;;;;;;;6.82;2.00;;;20.30;66.60;21.70;101380.00;;;;5046911;28;20224;-76
2023/08/07 08:38:16;;;;;;;3.30;1.50;;;20.30;66.40;21.70;101378.00;;;;5042967;28;20655;-76
2023/08/07 08:40:46;;;;;;;3.30;1.38;;;20.30;66.20;21.70;101381.00;;;;5046118;28;20215;-76
2023/08/07 08:43:15;;;;;;;2.15;1.10;;;20.30;65.90;21.70;101379.00;;;;5044665;28;20226;-77
2023/08/07 08:45:44;;;;;;;5.15;1.35;;;20.30;65.60;21.80;101389.00;;;;5045041;28;20961;-76
2023/08/07 08:48:21;;;;;;;4.53;1.40;;;20.30;65.50;21.70;101378.00;;;;5042278;28;20246;-77
2023/08/07 08:50:51;;;;;;;4.72;1.38;;;20.30;65.40;21.80;101381.00;;;;5044240;28;20345;-75
2023/08/07 08:53:20;;;;;;;4.85;1.85;;;20.30;65.90;22.00;101391.00;;;;5049263;28;20223;-74
2023/08/07 08:55:47;;;;;;;2.40;1.30;;;20.40;66.00;22.00;101379.00;;;;5048124;28;20575;-76
2023/08/07 08:58:17;;;;;;;7.45;2.15;;;20.50;65.80;22.10;101389.00;;;;5046639;28;20203;-76
2023/08/07 09:00:44;;;;;;;6.10;2.08;;;20.60;65.90;22.10;101392.00;;;;5047912;28;20196;-75
2023/08/07 09:03:13;;;;;;;4.97;1.95;;;20.60;65.60;22.20;101395.00;;;;5031448;28;20203;-76
2023/08/07 09:05:42;;;;;;;3.47;1.58;;;20.70;65.10;22.20;101401.00;;;;5047934;28;20203;-75
2023/08/07 09:08:10;;;;;;;7.63;1.77;;;20.70;64.40;22.20;101403.00;;;;5047730;28;20196;-76
2023/08/07 09:10:38;;;;;;;3.80;1.35;;;20.70;64.30;22.20;101410.00;;;;5048726;28;20219;-76
2023/08/07 09:13:11;;;;;;;4.32;1.55;;;20.70;64.00;22.10;101401.00;;;;5047755;28;20219;-76
2023/08/07 09:15:40;;;;;;;3.15;1.08;;;20.80;63.30;22.10;101414.00;;;;5048427;28;20199;-76
2023/08/07 09:18:10;;;;;;;5.00;1.23;;;20.70;63.50;22.10;101420.00;;;;5045029;28;20208;-76
2023/08/07 09:20:40;;;;;;;4.28;1.45;;;20.70;63.70;22.10;101427.00;;;;5048478;28;20204;-76
2023/08/07 09:23:07;;;;;;;2.45;1.10;;;20.70;63.50;22.10;101423.00;;;;5048084;28;20228;-76
2023/08/07 09:25:35;;;;;;;1.83;1.10;;;20.70;63.70;22.10;101436.00;;;;5048169;28;20208;-76
2023/08/07 09:28:04;;;;;;;2.25;1.00;;;20.70;63.90;22.10;101436.00;;;;5040832;28;20199;-75
2023/08/07 09:30:33;;;;;;;2.97;1.23;;;20.70;63.90;22.10;101438.00;;;;5045019;28;20210;-75
2023/08/07 09:33:01;;;;;;;5.68;1.70;;;20.70;63.60;22.10;101434.00;;;;5044154;28;20219;-76
2023/08/07 09:35:31;;;;;;;4.35;1.15;;;20.70;63.50;22.10;101436.00;;;;5044482;28;20679;-76
2023/08/07 09:37:59;;;;;;;4.30;1.38;;;20.70;63.50;22.10;101439.00;;;;5046467;28;20196;-76
2023/08/07 09:40:26;;;;;;;5.32;1.17;;;20.70;63.40;22.20;101456.00;;;;5047331;28;20219;-75
2023/08/07 09:42:55;;;;;;;5.72;1.55;;;20.70;63.10;22.20;101435.00;;;;5047308;28;20191;-75
2023/08/07 09:45:23;;;;;;;2.72;1.45;;;20.70;63.30;22.20;101438.00;;;;5045913;28;20262;-76
2023/08/07 09:48:01;;;;;;;3.35;0.95;;;20.70;63.30;22.10;101448.00;;;;5045194;28;20655;-75
2023/08/07 09:50:29;;;;;;;4.47;1.50;;;20.80;62.70;22.30;101442.00;;;;5048696;28;20192;-76
2023/08/07 09:52:57;;;;;;;3.63;1.10;;;20.80;63.00;22.30;101450.00;;;;5045813;28;20231;-76
2023/08/07 09:55:26;;;;;;;2.03;1.27;;;20.80;62.90;22.30;101438.00;;;;5047323;28;20230;-76
2023/08/07 09:57:53;;;;;;;3.60;1.25;;;20.90;62.90;22.40;101448.00;;;;5047693;28;20195;-76
2023/08/07 10:00:22;;;;;;;3.78;1.23;;;20.90;62.90;22.40;101445.00;;;;5046208;28;20207;-76
2023/08/07 10:02:50;;;;;;;5.75;1.50;;;20.90;62.70;22.40;101452.00;;;;5045572;28;20198;-76
2023/08/07 10:05:18;;;;;;;5.55;1.75;;;21.00;62.80;22.50;101459.00;;;;5047574;28;20215;-76
2023/08/07 10:07:46;;;;;;;2.75;0.98;;;21.00;62.80;22.50;101461.00;;;;5046632;28;20203;-76
2023/08/07 10:10:13;;;;;;;5.40;1.85;;;21.00;62.80;22.50;101450.00;;;;5038531;28;20195;-76
2023/08/07 10:12:45;;;;;;;5.45;1.17;;;21.10;62.30;22.50;101458.00;;;;5045815;28;20218;-76
2023/08/07 10:15:13;;;;;;;2.85;1.23;;;21.10;62.20;22.50;101467.00;;;;5047322;28;20274;-76
2023/08/07 10:17:40;;;;;;;6.63;1.77;;;21.00;62.00;22.40;101476.00;;;;5046803;28;20234;-76
2023/08/07 10:20:09;;;;;;;3.92;1.88;;;21.00;62.00;22.30;101475.00;;;;5046181;28;20192;-76
2023/08/07 10:22:40;;;;;;;2.53;1.30;;;21.00;62.00;22.30;101484.00;;;;5047019;28;20196;-76
2023/08/07 10:25:08;;;;;;;6.00;1.52;;;20.90;61.90;22.20;101481.00;;;;5045433;28;20287;-76
2023/08/07 10:27:39;;;;;;;4.28;1.15;;;20.90;62.00;22.20;101479.00;;;;5033245;28;20204;-76
2023/08/07 10:30:13;;;;;;;10.68;1.85;;;20.80;62.00;22.10;101476.00;;;;5050377;28;20210;-76
2023/08/07 10:32:41;;;;;;;5.47;1.23;;;20.80;62.20;22.10;101482.00;;;;5050245;28;20219;-76
2023/08/07 10:35:09;;;;;;;3.88;1.30;;;20.70;62.40;22.10;101478.00;;;;5049321;28;20683;-76
2023/08/07 10:37:44;;;;;;;1.98;0.95;;;20.70;62.50;22.10;101479.00;;;;5049873;28;20290;-76
2023/08/07 10:40:13;;;;;;;4.82;1.70;;;20.70;62.50;22.20;101479.00;;;;5050701;28;20220;-75
2023/08/07 10:42:59;;;;;;;3.35;1.05;;;20.70;62.90;22.20;101472.00;;;;5050516;28;20203;-75
2023/08/07 10:45:29;;;;;;;2.35;1.20;;;20.70;62.80;22.40;101465.00;;;;5047793;28;20681;-76
2023/08/07 10:48:06;;;;;;;2.45;1.02;;;20.80;63.50;22.40;101467.00;;;;5048842;28;20199;-76
2023/08/07 10:50:34;;;;;;;3.90;1.27;;;20.90;63.60;22.60;101484.00;;;;5051051;28;20218;-76
2023/08/07 10:53:02;;;;;;;5.28;1.27;;;21.00;63.60;22.60;101479.00;;;;5050390;28;20215;-77